Time;durP1;ratioP1;P1;durP2;ratioP2;P2;SDS_P1;SDS_P2;PMS_P1;PMS_P2;Temp;Humidity;BMP_temperature;BMP_pressure;BME280_temperature;BME280_humidity;BME280_pressure;Samples;Min_cycle;Max_cycle;Signal;HPM_P1;HPM_P2
2021/10/25 00:00:30;;;;;;;43.57;16.87;;;;;;;;;;769132;183;918024;-62
2021/10/25 00:02:56;;;;;;;32.03;17.57;;;;;;;;;;765544;183;920436;-62
2021/10/25 00:05:22;;;;;;;33.40;18.60;;;;;;;;;;763103;183;924497;-62
2021/10/25 00:07:48;;;;;;;26.20;17.57;;;;;;;;;;765808;183;920600;-61
2021/10/25 00:10:14;;;;;;;32.70;17.60;;;;;;;;;;771342;183;915437;-62
2021/10/25 00:12:41;;;;;;;29.30;15.87;;;;;;;;;;762216;183;1016874;-63
2021/10/25 00:15:06;;;;;;;32.97;17.20;;;;;;;;;;761160;183;919826;-62
2021/10/25 00:17:32;;;;;;;30.90;16.70;;;;;;;;;;769850;183;919114;-61
2021/10/25 00:19:58;;;;;;;35.50;17.67;;;;;;;;;;767256;183;918703;-62
2021/10/25 00:22:23;;;;;;;45.00;18.33;;;;;;;;;;766278;183;918878;-62
2021/10/25 00:24:49;;;;;;;28.33;17.20;;;;;;;;;;767634;183;918776;-61
2021/10/25 00:27:15;;;;;;;34.40;15.27;;;;;;;;;;765520;183;919071;-62
2021/10/25 00:29:42;;;;;;;35.63;19.77;;;;;;;;;;762702;183;918796;-61
2021/10/25 00:32:07;;;;;;;27.03;15.50;;;;;;;;;;764632;183;919578;-62
2021/10/25 00:34:33;;;;;;;29.40;16.50;;;;;;;;;;772871;180;920011;-62
2021/10/25 00:37:02;;;;;;;27.50;15.23;;;;;;;;;;764839;182;919219;-62
2021/10/25 00:39:24;;;;;;;38.17;17.60;;;;;;;;;;764278;182;918602;-61
2021/10/25 00:41:51;;;;;;;45.10;18.07;;;;;;;;;;772524;182;917548;-62
2021/10/25 00:44:17;;;;;;;32.20;14.70;;;;;;;;;;763698;183;1020209;-62
2021/10/25 00:46:42;;;;;;;35.43;18.83;;;;;;;;;;763686;183;920011;-62
2021/10/25 00:49:08;;;;;;;36.70;16.03;;;;;;;;;;767970;183;918536;-62
2021/10/25 00:51:34;;;;;;;34.37;15.90;;;;;;;;;;765456;183;918965;-62
2021/10/25 00:53:59;;;;;;;26.57;15.50;;;;;;;;;;764060;183;920270;-62
2021/10/25 00:56:25;;;;;;;37.40;16.73;;;;;;;;;;765902;183;919430;-61
2021/10/25 00:58:51;;;;;;;32.93;17.30;;;;;;;;;;761071;183;919136;-62
2021/10/25 01:01:18;;;;;;;26.80;16.00;;;;;;;;;;761321;183;919095;-62
2021/10/25 01:03:43;;;;;;;34.90;17.23;;;;;;;;;;765169;183;919255;-61
2021/10/25 01:06:09;;;;;;;30.75;17.17;;;;;;;;;;772153;183;919368;-63
2021/10/25 01:08:36;;;;;;;34.67;15.93;;;;;;;;;;763948;183;919004;-61
2021/10/25 01:11:01;;;;;;;37.43;16.63;;;;;;;;;;763204;183;917472;-62
2021/10/25 01:13:27;;;;;;;36.40;15.97;;;;;;;;;;769664;183;919749;-62
2021/10/25 01:15:53;;;;;;;24.27;14.77;;;;;;;;;;766145;183;919174;-63
2021/10/25 01:18:18;;;;;;;26.23;14.90;;;;;;;;;;765236;183;919581;-61
2021/10/25 01:20:44;;;;;;;30.53;15.07;;;;;;;;;;769770;183;919173;-62
2021/10/25 01:23:10;;;;;;;28.40;13.37;;;;;;;;;;765712;183;919118;-63
2021/10/25 01:25:36;;;;;;;29.47;13.30;;;;;;;;;;766557;183;919432;-62
2021/10/25 01:28:02;;;;;;;25.40;12.70;;;;;;;;;;766365;183;919020;-62
2021/10/25 01:30:28;;;;;;;28.70;14.20;;;;;;;;;;768281;183;1020767;-62
2021/10/25 01:32:54;;;;;;;23.80;13.93;;;;;;;;;;764768;183;919427;-61
2021/10/25 01:35:20;;;;;;;30.10;15.53;;;;;;;;;;765122;183;916515;-62
2021/10/25 01:37:46;;;;;;;25.63;15.03;;;;;;;;;;768582;183;916417;-62
2021/10/25 01:40:12;;;;;;;28.35;14.25;;;;;;;;;;767367;183;919654;-62
2021/10/25 01:42:38;;;;;;;25.33;13.77;;;;;;;;;;762648;183;919199;-61
2021/10/25 01:45:05;;;;;;;31.80;13.60;;;;;;;;;;769654;183;919025;-62
2021/10/25 01:47:30;;;;;;;26.75;15.55;;;;;;;;;;765980;181;919544;-62
2021/10/25 01:49:56;;;;;;;26.70;14.10;;;;;;;;;;766890;182;918741;-62
2021/10/25 01:52:23;;;;;;;28.33;14.83;;;;;;;;;;765721;183;918500;-62
2021/10/25 01:54:48;;;;;;;28.77;13.13;;;;;;;;;;768967;183;919473;-62
2021/10/25 01:57:14;;;;;;;32.60;13.33;;;;;;;;;;765380;183;919631;-61
2021/10/25 01:59:40;;;;;;;22.90;10.40;;;;;;;;;;764214;183;1020251;-61
2021/10/25 02:02:06;;;;;;;21.40;9.63;;;;;;;;;;770001;183;918750;-62
2021/10/25 02:04:32;;;;;;;16.43;8.93;;;;;;;;;;765995;182;918982;-62
2021/10/25 02:06:58;;;;;;;15.10;7.77;;;;;;;;;;763056;183;918791;-63
2021/10/25 02:09:24;;;;;;;13.10;6.37;;;;;;;;;;771739;183;919289;-63
2021/10/25 02:11:49;;;;;;;15.00;7.50;;;;;;;;;;765972;183;919899;-63
2021/10/25 02:14:16;;;;;;;14.70;6.80;;;;;;;;;;765151;183;919320;-62
2021/10/25 02:16:41;;;;;;;10.53;5.47;;;;;;;;;;766573;183;918767;-62
2021/10/25 02:19:07;;;;;;;21.03;6.60;;;;;;;;;;770549;183;920095;-62
2021/10/25 02:21:33;;;;;;;14.20;6.50;;;;;;;;;;764628;183;920134;-61
2021/10/25 02:23:59;;;;;;;11.97;6.27;;;;;;;;;;762561;183;1016228;-62
2021/10/25 02:26:24;;;;;;;17.00;7.17;;;;;;;;;;772235;183;919426;-62
2021/10/25 02:28:50;;;;;;;11.53;6.00;;;;;;;;;;764945;183;920240;-63
2021/10/25 02:31:16;;;;;;;19.83;7.07;;;;;;;;;;763945;183;920804;-63
2021/10/25 02:33:42;;;;;;;11.83;5.50;;;;;;;;;;770561;183;919115;-62
2021/10/25 02:36:08;;;;;;;8.83;5.37;;;;;;;;;;764175;183;919747;-63
2021/10/25 02:38:34;;;;;;;10.53;5.93;;;;;;;;;;765167;183;919640;-62
2021/10/25 02:41:00;;;;;;;12.13;5.70;;;;;;;;;;764054;183;919609;-62
2021/10/25 02:43:26;;;;;;;14.00;5.10;;;;;;;;;;762793;181;1027998;-63
2021/10/25 02:45:51;;;;;;;14.17;6.23;;;;;;;;;;765206;183;919826;-62
2021/10/25 02:48:17;;;;;;;14.27;5.45;;;;;;;;;;764322;183;1019557;-62
2021/10/25 02:50:43;;;;;;;14.60;5.70;;;;;;;;;;770877;183;919151;-62
2021/10/25 02:53:09;;;;;;;14.50;5.40;;;;;;;;;;761676;183;920025;-63
2021/10/25 02:55:35;;;;;;;13.10;5.67;;;;;;;;;;763060;183;918849;-62
2021/10/25 02:58:01;;;;;;;7.77;4.90;;;;;;;;;;771938;182;912637;-63
2021/10/25 03:00:26;;;;;;;9.50;5.27;;;;;;;;;;769342;182;911012;-63
2021/10/25 03:02:53;;;;;;;13.40;5.37;;;;;;;;;;766014;182;913188;-63
2021/10/25 03:05:18;;;;;;;9.30;5.00;;;;;;;;;;767933;183;912245;-63
2021/10/25 03:07:44;;;;;;;10.30;5.03;;;;;;;;;;761737;183;919295;-63
2021/10/25 03:10:10;;;;;;;7.97;5.50;;;;;;;;;;761765;183;921253;-63
2021/10/25 03:12:36;;;;;;;7.63;4.50;;;;;;;;;;767377;183;919282;-63
2021/10/25 03:15:01;;;;;;;10.57;5.67;;;;;;;;;;772609;183;919120;-63
2021/10/25 03:17:27;;;;;;;11.37;5.37;;;;;;;;;;763041;183;919374;-63
2021/10/25 03:19:53;;;;;;;9.18;5.57;;;;;;;;;;761505;183;925497;-63
2021/10/25 03:22:19;;;;;;;9.40;5.20;;;;;;;;;;772601;183;918513;-62
2021/10/25 03:24:45;;;;;;;14.87;5.60;;;;;;;;;;766779;183;919086;-63
2021/10/25 03:27:11;;;;;;;8.03;5.17;;;;;;;;;;763679;183;1026214;-63
2021/10/25 03:29:36;;;;;;;9.25;5.28;;;;;;;;;;766879;183;919014;-63
2021/10/25 03:32:03;;;;;;;15.30;5.90;;;;;;;;;;764777;183;920781;-63
2021/10/25 03:34:29;;;;;;;8.30;5.80;;;;;;;;;;760587;183;919388;-62
2021/10/25 03:36:55;;;;;;;12.40;7.80;;;;;;;;;;766252;183;919332;-62
2021/10/25 03:39:24;;;;;;;15.00;5.00;;;;;;;;;;774249;180;919559;-62
2021/10/25 03:41:48;;;;;;;10.20;4.70;;;;;;;;;;764167;183;918801;-62
2021/10/25 03:44:17;;;;;;;11.57;5.60;;;;;;;;;;766245;183;919270;-62
2021/10/25 03:46:45;;;;;;;7.70;4.40;;;;;;;;;;770102;183;917896;-62
2021/10/25 03:49:15;;;;;;;18.17;5.87;;;;;;;;;;766651;183;920413;-62
2021/10/25 03:51:38;;;;;;;14.20;6.23;;;;;;;;;;765439;183;919657;-63
2021/10/25 03:54:27;;;;;;;7.20;5.47;;;;;;;;;;766014;183;1017220;-62
2021/10/25 03:57:11;;;;;;;9.10;6.57;;;;;;;;;;763637;181;915149;-61
2021/10/25 03:59:35;;;;;;;12.13;5.30;;;;;;;;;;771373;181;910434;-64
2021/10/25 04:27:30;;;;;;;10.00;5.70;;;;;;;;;;770408;182;918955;-63
2021/10/25 04:30:00;;;;;;;9.57;7.10;;;;;;;;;;772417;183;918722;-63
2021/10/25 04:32:18;;;;;;;13.03;5.70;;;;;;;;;;763812;183;920182;-63
2021/10/25 04:34:43;;;;;;;16.40;7.30;;;;;;;;;;761476;183;919138;-64
2021/10/25 04:37:09;;;;;;;11.50;5.53;;;;;;;;;;766072;183;918065;-64
2021/10/25 04:39:35;;;;;;;16.57;7.00;;;;;;;;;;767451;183;919634;-64
2021/10/25 04:42:01;;;;;;;28.87;11.83;;;;;;;;;;767974;183;919516;-64
2021/10/25 04:44:29;;;;;;;23.40;13.23;;;;;;;;;;767550;183;1021071;-63
2021/10/25 04:46:53;;;;;;;18.37;7.17;;;;;;;;;;765006;183;922063;-63
2021/10/25 04:49:18;;;;;;;13.50;5.20;;;;;;;;;;760782;183;917643;-63
2021/10/25 04:51:44;;;;;;;10.05;5.05;;;;;;;;;;764792;183;921462;-63
2021/10/25 04:54:10;;;;;;;11.80;6.40;;;;;;;;;;770412;183;919044;-64
2021/10/25 04:56:36;;;;;;;9.13;5.30;;;;;;;;;;771702;183;623369;-64
2021/10/25 04:59:02;;;;;;;10.67;5.87;;;;;;;;;;771480;183;617134;-61
2021/10/25 05:01:28;;;;;;;11.30;5.47;;;;;;;;;;771884;183;918744;-61
2021/10/25 05:03:54;;;;;;;8.30;4.90;;;;;;;;;;765115;183;918741;-63
2021/10/25 05:06:19;;;;;;;12.73;5.83;;;;;;;;;;759451;183;969717;-62
2021/10/25 05:08:45;;;;;;;9.68;5.07;;;;;;;;;;772128;183;920299;-63
2021/10/25 05:11:11;;;;;;;6.60;5.50;;;;;;;;;;766707;183;918196;-64
2021/10/25 05:13:37;;;;;;;10.40;4.03;;;;;;;;;;765221;183;919392;-62
2021/10/25 05:16:03;;;;;;;6.90;4.25;;;;;;;;;;768872;183;921842;-63
2021/10/25 05:18:29;;;;;;;9.97;4.87;;;;;;;;;;771598;180;919800;-64
2021/10/25 05:20:55;;;;;;;9.87;5.07;;;;;;;;;;766993;180;920432;-64
2021/10/25 05:23:21;;;;;;;8.83;4.50;;;;;;;;;;766873;182;916488;-63
2021/10/25 05:25:49;;;;;;;9.40;4.50;;;;;;;;;;775081;183;914049;-63
2021/10/25 05:28:12;;;;;;;8.20;5.43;;;;;;;;;;768287;183;913778;-63
2021/10/25 05:30:38;;;;;;;10.60;4.93;;;;;;;;;;770163;183;919232;-63
2021/10/25 05:33:04;;;;;;;11.80;4.13;;;;;;;;;;772643;183;918982;-63
2021/10/25 05:35:30;;;;;;;6.73;3.50;;;;;;;;;;767375;183;920032;-63
2021/10/25 05:37:56;;;;;;;6.05;4.65;;;;;;;;;;768175;183;918144;-63
2021/10/25 05:40:22;;;;;;;6.37;4.33;;;;;;;;;;771839;183;965387;-61
2021/10/25 05:42:47;;;;;;;14.20;4.50;;;;;;;;;;769357;183;919295;-62
2021/10/25 05:45:13;;;;;;;8.80;3.80;;;;;;;;;;766861;183;1123017;-63
2021/10/25 05:47:39;;;;;;;5.63;3.40;;;;;;;;;;767637;183;918999;-64
2021/10/25 05:50:05;;;;;;;9.80;4.00;;;;;;;;;;771109;183;920559;-64
2021/10/25 05:52:31;;;;;;;7.83;4.80;;;;;;;;;;761379;183;918981;-63
2021/10/25 05:54:57;;;;;;;9.23;5.27;;;;;;;;;;766407;182;918965;-65
2021/10/25 05:57:24;;;;;;;7.93;4.63;;;;;;;;;;770465;183;910138;-62
2021/10/25 05:59:50;;;;;;;7.73;4.97;;;;;;;;;;763561;183;918853;-63
2021/10/25 06:02:31;;;;;;;8.20;5.50;;;;;;;;;;763806;183;919474;-63
2021/10/25 06:04:51;;;;;;;7.50;5.20;;;;;;;;;;763139;183;919034;-63
2021/10/25 06:07:17;;;;;;;10.20;6.07;;;;;;;;;;773084;183;911361;-62
2021/10/25 06:09:44;;;;;;;8.60;4.30;;;;;;;;;;767663;183;918720;-63
2021/10/25 06:12:13;;;;;;;9.43;5.75;;;;;;;;;;760618;183;919335;-63
2021/10/25 06:14:39;;;;;;;8.57;4.90;;;;;;;;;;768640;183;919508;-63
2021/10/25 06:17:01;;;;;;;9.27;4.73;;;;;;;;;;759485;183;1038109;-61
2021/10/25 06:19:26;;;;;;;10.05;5.60;;;;;;;;;;762525;183;1125786;-61
2021/10/25 06:21:52;;;;;;;10.20;6.10;;;;;;;;;;763801;183;937246;-63
2021/10/25 06:24:18;;;;;;;10.03;5.30;;;;;;;;;;768324;183;626789;-63
2021/10/25 06:26:44;;;;;;;6.80;5.67;;;;;;;;;;770498;183;629247;-64
2021/10/25 06:29:09;;;;;;;9.03;5.10;;;;;;;;;;769715;183;626944;-64
2021/10/25 06:31:35;;;;;;;14.27;5.20;;;;;;;;;;770869;183;633235;-64
2021/10/25 06:34:08;;;;;;;10.33;5.13;;;;;;;;;;770563;181;623248;-64
2021/10/25 06:36:30;;;;;;;8.43;5.00;;;;;;;;;;770210;182;631824;-63
2021/10/25 06:38:58;;;;;;;8.43;5.10;;;;;;;;;;774160;183;622605;-63
2021/10/25 06:41:21;;;;;;;10.93;5.83;;;;;;;;;;770108;183;625905;-64
2021/10/25 06:43:48;;;;;;;16.23;5.77;;;;;;;;;;768193;183;629615;-63
2021/10/25 06:46:13;;;;;;;11.23;4.83;;;;;;;;;;770514;183;626108;-63
2021/10/25 06:48:39;;;;;;;9.23;4.90;;;;;;;;;;770497;183;919426;-62
2021/10/25 06:51:05;;;;;;;9.50;5.47;;;;;;;;;;770033;183;617760;-63
2021/10/25 06:53:31;;;;;;;15.13;5.77;;;;;;;;;;769211;183;680606;-63
2021/10/25 06:55:57;;;;;;;16.17;5.50;;;;;;;;;;771082;183;918857;-64
2021/10/25 06:58:22;;;;;;;33.27;5.60;;;;;;;;;;768437;183;650653;-62
2021/10/25 07:00:48;;;;;;;8.90;4.47;;;;;;;;;;772054;183;623632;-62
2021/10/25 07:03:14;;;;;;;10.83;5.20;;;;;;;;;;771229;183;624445;-62
2021/10/25 07:05:40;;;;;;;11.03;5.00;;;;;;;;;;767353;183;919953;-63
2021/10/25 07:08:06;;;;;;;9.17;4.30;;;;;;;;;;769337;183;625143;-64
2021/10/25 07:10:32;;;;;;;5.53;3.93;;;;;;;;;;769124;183;614680;-63
2021/10/25 07:12:58;;;;;;;9.90;4.03;;;;;;;;;;776468;180;619023;-63
2021/10/25 07:15:23;;;;;;;8.13;3.10;;;;;;;;;;767247;183;867444;-62
2021/10/25 07:18:02;;;;;;;9.50;4.00;;;;;;;;;;767145;183;637437;-62
2021/10/25 08:01:28;;;;;;;4.10;2.67;;;;;;;;;;771789;183;628389;-64
2021/10/25 08:03:54;;;;;;;14.83;4.10;;;;;;;;;;772382;183;696981;-64
2021/10/25 08:06:08;;;;;;;5.80;3.50;;;;;;;;;;766647;183;918435;-65
2021/10/25 08:08:38;;;;;;;9.73;3.37;;;;;;;;;;768531;183;619346;-64
2021/10/25 08:11:06;;;;;;;11.73;3.53;;;;;;;;;;770905;183;623884;-64
2021/10/25 08:13:41;;;;;;;6.77;3.13;;;;;;;;;;768327;183;718010;-64
2021/10/25 08:16:20;;;;;;;6.43;3.27;;;;;;;;;;772733;183;613419;-65
2021/10/25 08:18:54;;;;;;;5.80;2.73;;;;;;;;;;769194;183;645820;-65
2021/10/25 08:21:05;;;;;;;10.53;3.63;;;;;;;;;;766405;183;656812;-65
2021/10/25 08:23:31;;;;;;;6.83;3.37;;;;;;;;;;770771;183;643733;-66
2021/10/25 08:25:57;;;;;;;7.00;3.00;;;;;;;;;;768029;183;645927;-65
2021/10/25 08:28:22;;;;;;;8.10;3.27;;;;;;;;;;766051;183;916544;-65
2021/10/25 08:30:51;;;;;;;10.17;3.30;;;;;;;;;;769569;183;632737;-65
2021/10/25 08:33:38;;;;;;;5.33;2.93;;;;;;;;;;769995;183;628925;-65
2021/10/25 08:40:57;;;;;;;7.90;2.97;;;;;;;;;;765219;183;632829;-65
2021/10/25 08:43:23;;;;;;;7.17;3.23;;;;;;;;;;770454;183;623696;-65
2021/10/25 08:45:51;;;;;;;4.90;2.60;;;;;;;;;;773047;181;651656;-66
2021/10/25 08:48:15;;;;;;;10.57;3.00;;;;;;;;;;766586;183;920987;-67
2021/10/25 08:50:40;;;;;;;6.70;3.03;;;;;;;;;;767386;183;918362;-65
2021/10/25 08:53:07;;;;;;;6.10;2.50;;;;;;;;;;770669;183;627669;-65
2021/10/25 08:55:32;;;;;;;3.80;2.43;;;;;;;;;;768918;181;919134;-66
2021/10/25 08:57:58;;;;;;;6.00;3.23;;;;;;;;;;771073;182;625908;-65
2021/10/25 09:00:30;;;;;;;9.37;3.70;;;;;;;;;;773726;182;916904;-66
2021/10/25 09:02:55;;;;;;;4.70;2.83;;;;;;;;;;772719;183;637859;-67
2021/10/25 09:05:23;;;;;;;7.97;3.43;;;;;;;;;;770319;183;918426;-67
2021/10/25 09:07:47;;;;;;;4.13;2.27;;;;;;;;;;768292;183;651649;-67
2021/10/25 09:10:13;;;;;;;5.67;2.90;;;;;;;;;;770034;183;622882;-66
2021/10/25 09:12:39;;;;;;;9.40;3.43;;;;;;;;;;769134;183;916339;-67
2021/10/25 09:15:05;;;;;;;9.17;3.87;;;;;;;;;;771110;183;625356;-67
2021/10/25 09:17:37;;;;;;;6.20;3.00;;;;;;;;;;775928;183;630514;-66
2021/10/25 09:20:03;;;;;;;5.47;2.80;;;;;;;;;;775940;183;627121;-67
2021/10/25 09:22:28;;;;;;;5.03;2.57;;;;;;;;;;764240;183;919557;-68
2021/10/25 09:24:54;;;;;;;11.47;3.53;;;;;;;;;;768682;183;620739;-68
2021/10/25 09:27:26;;;;;;;7.57;3.20;;;;;;;;;;772757;183;626329;-68
2021/10/25 09:29:54;;;;;;;5.57;2.73;;;;;;;;;;768762;183;630345;-66
2021/10/25 09:32:18;;;;;;;9.60;2.60;;;;;;;;;;768320;183;656132;-67
2021/10/25 09:34:49;;;;;;;5.80;2.60;;;;;;;;;;768194;183;904589;-67
2021/10/25 09:37:16;;;;;;;7.73;2.73;;;;;;;;;;771098;180;917956;-69
2021/10/25 09:39:43;;;;;;;4.43;2.67;;;;;;;;;;767338;183;639371;-67
2021/10/25 09:42:20;;;;;;;7.63;2.30;;;;;;;;;;766276;183;623261;-67
2021/10/25 09:49:42;;;;;;;3.27;2.03;;;;;;;;;;769708;183;635072;-67
2021/10/25 09:52:08;;;;;;;8.90;2.70;;;;;;;;;;762939;183;640345;-66
2021/10/25 09:54:34;;;;;;;7.27;2.67;;;;;;;;;;769987;183;728947;-65
2021/10/25 09:57:06;;;;;;;5.10;1.90;;;;;;;;;;775765;180;622499;-65
2021/10/25 09:59:46;;;;;;;10.00;3.20;;;;;;;;;;768085;183;628774;-66
2021/10/25 10:01:58;;;;;;;6.37;2.27;;;;;;;;;;763851;183;636793;-65
2021/10/25 10:04:24;;;;;;;4.50;2.50;;;;;;;;;;770356;183;638625;-67
2021/10/25 10:06:50;;;;;;;6.27;2.67;;;;;;;;;;769964;182;632334;-67
2021/10/25 10:09:16;;;;;;;10.60;2.33;;;;;;;;;;770953;183;627037;-67
2021/10/25 10:11:42;;;;;;;9.88;2.65;;;;;;;;;;769443;182;915142;-67
2021/10/25 10:14:07;;;;;;;7.43;3.03;;;;;;;;;;770877;183;620439;-68
2021/10/25 10:16:34;;;;;;;6.63;2.20;;;;;;;;;;770342;183;636003;-65
2021/10/25 10:19:00;;;;;;;4.90;2.30;;;;;;;;;;766039;183;915796;-66
2021/10/25 10:21:26;;;;;;;5.23;2.77;;;;;;;;;;768048;183;1326697;-67
2021/10/25 10:23:53;;;;;;;4.97;2.57;;;;;;;;;;763895;183;1022408;-67
2021/10/25 10:26:17;;;;;;;4.10;2.40;;;;;;;;;;769231;183;779134;-69
2021/10/25 10:28:44;;;;;;;7.30;2.10;;;;;;;;;;770742;183;620668;-66
2021/10/25 10:31:09;;;;;;;7.40;2.40;;;;;;;;;;768804;183;691298;-68
2021/10/25 10:33:44;;;;;;;4.73;2.40;;;;;;;;;;765249;183;918562;-66
2021/10/25 10:36:10;;;;;;;6.87;2.70;;;;;;;;;;770480;183;634909;-67
2021/10/25 10:38:36;;;;;;;5.97;2.60;;;;;;;;;;774834;183;632059;-67
2021/10/25 10:41:02;;;;;;;4.80;2.50;;;;;;;;;;767863;183;637955;-68
2021/10/25 10:43:28;;;;;;;4.60;1.80;;;;;;;;;;771044;183;646709;-66
2021/10/25 10:45:56;;;;;;;5.40;2.37;;;;;;;;;;773728;183;625988;-67
2021/10/25 10:48:24;;;;;;;6.10;2.47;;;;;;;;;;774376;183;629574;-66
2021/10/25 10:50:57;;;;;;;6.77;2.60;;;;;;;;;;768505;183;642071;-68
2021/10/25 10:53:24;;;;;;;7.70;2.50;;;;;;;;;;766722;183;636523;-69
2021/10/25 10:55:43;;;;;;;7.60;2.10;;;;;;;;;;769572;183;617357;-67
2021/10/25 10:58:24;;;;;;;5.53;3.27;;;;;;;;;;765381;183;898010;-67
2021/10/25 11:00:40;;;;;;;6.47;2.73;;;;;;;;;;768454;183;633466;-67
2021/10/25 11:03:16;;;;;;;2.90;1.80;;;;;;;;;;769165;183;634296;-66
2021/10/25 11:05:43;;;;;;;8.07;2.20;;;;;;;;;;773742;183;620821;-69
2021/10/25 11:08:11;;;;;;;4.93;2.23;;;;;;;;;;765897;183;618893;-67
2021/10/25 11:10:37;;;;;;;10.47;2.53;;;;;;;;;;769360;183;631443;-66
2021/10/25 11:13:02;;;;;;;5.13;2.30;;;;;;;;;;768555;183;734001;-67
2021/10/25 11:15:35;;;;;;;3.23;1.73;;;;;;;;;;769394;183;622646;-68
2021/10/25 11:18:00;;;;;;;5.73;2.50;;;;;;;;;;764949;183;626446;-67
2021/10/25 11:20:26;;;;;;;4.37;2.23;;;;;;;;;;770825;182;639604;-66
2021/10/25 11:22:51;;;;;;;4.60;2.90;;;;;;;;;;774276;182;630665;-68
2021/10/25 11:25:18;;;;;;;7.37;2.63;;;;;;;;;;771343;183;630257;-67
2021/10/25 11:27:43;;;;;;;5.20;2.40;;;;;;;;;;772359;183;685672;-69
2021/10/25 11:30:09;;;;;;;4.53;1.73;;;;;;;;;;767019;183;674206;-67
2021/10/25 11:32:35;;;;;;;6.97;2.57;;;;;;;;;;769914;183;677046;-66
2021/10/25 11:35:02;;;;;;;5.00;1.83;;;;;;;;;;771589;183;734104;-68
2021/10/25 11:37:27;;;;;;;5.60;2.43;;;;;;;;;;763257;183;917246;-67
2021/10/25 11:39:58;;;;;;;4.90;2.80;;;;;;;;;;771825;183;624436;-67
2021/10/25 11:42:19;;;;;;;4.37;1.73;;;;;;;;;;768299;183;617044;-67
2021/10/25 11:44:46;;;;;;;4.73;2.10;;;;;;;;;;768268;183;618950;-69
2021/10/25 11:47:18;;;;;;;3.30;1.60;;;;;;;;;;774555;183;616840;-67
2021/10/25 11:49:44;;;;;;;4.30;2.40;;;;;;;;;;769395;183;919707;-67
2021/10/25 11:52:10;;;;;;;2.60;1.77;;;;;;;;;;770184;183;628145;-67
2021/10/25 11:54:41;;;;;;;11.70;2.17;;;;;;;;;;768175;183;631594;-68
2021/10/25 11:57:07;;;;;;;7.40;1.90;;;;;;;;;;772881;183;701574;-67
2021/10/25 11:59:33;;;;;;;8.00;1.93;;;;;;;;;;766351;181;664237;-68
2021/10/25 12:01:59;;;;;;;5.70;2.10;;;;;;;;;;769593;182;619357;-67
2021/10/25 12:04:25;;;;;;;8.00;2.30;;;;;;;;;;768173;183;632022;-67
2021/10/25 12:06:52;;;;;;;3.50;1.90;;;;;;;;;;772660;183;623829;-68
2021/10/25 12:09:18;;;;;;;6.73;1.90;;;;;;;;;;770374;183;716795;-67
2021/10/25 12:12:03;;;;;;;5.47;2.07;;;;;;;;;;768747;183;901910;-69
2021/10/25 12:14:28;;;;;;;4.90;2.17;;;;;;;;;;770618;183;637822;-66
2021/10/25 12:16:51;;;;;;;5.93;2.50;;;;;;;;;;773962;183;618528;-68
2021/10/25 12:19:17;;;;;;;3.73;1.80;;;;;;;;;;766839;183;629520;-68
2021/10/25 12:21:43;;;;;;;5.07;2.03;;;;;;;;;;769999;183;624054;-68
2021/10/25 12:24:09;;;;;;;4.30;1.60;;;;;;;;;;772823;183;612798;-68
2021/10/25 12:26:35;;;;;;;3.67;1.93;;;;;;;;;;768994;183;621266;-67
2021/10/25 12:29:01;;;;;;;4.00;2.30;;;;;;;;;;770525;183;624436;-68
2021/10/25 12:31:26;;;;;;;4.10;1.90;;;;;;;;;;770750;180;918887;-67
2021/10/25 12:33:52;;;;;;;3.33;1.90;;;;;;;;;;770523;182;643139;-68
2021/10/25 12:36:19;;;;;;;4.50;2.00;;;;;;;;;;769470;183;630013;-69
2021/10/25 12:38:45;;;;;;;6.60;2.20;;;;;;;;;;765880;183;624663;-68
2021/10/25 12:41:11;;;;;;;3.90;2.10;;;;;;;;;;773902;183;616922;-67
2021/10/25 12:43:36;;;;;;;3.10;1.90;;;;;;;;;;768778;183;789572;-68
2021/10/25 12:46:04;;;;;;;8.57;2.20;;;;;;;;;;769180;183;629146;-68
2021/10/25 12:48:28;;;;;;;8.20;2.17;;;;;;;;;;773967;183;619267;-68
2021/10/25 12:51:04;;;;;;;6.13;2.87;;;;;;;;;;768967;183;629211;-67
2021/10/25 12:53:32;;;;;;;3.23;2.10;;;;;;;;;;768552;183;909639;-69
2021/10/25 12:55:58;;;;;;;4.03;2.10;;;;;;;;;;769817;183;626941;-67
2021/10/25 12:58:24;;;;;;;5.17;2.10;;;;;;;;;;772823;183;631872;-68
2021/10/25 13:00:50;;;;;;;3.40;1.83;;;;;;;;;;766368;183;650960;-66
2021/10/25 13:03:16;;;;;;;8.20;2.10;;;;;;;;;;766724;183;667012;-67
2021/10/25 13:05:45;;;;;;;4.63;2.00;;;;;;;;;;769666;183;621936;-67
2021/10/25 13:08:07;;;;;;;4.30;2.20;;;;;;;;;;771792;183;625709;-68
2021/10/25 13:10:34;;;;;;;4.63;2.63;;;;;;;;;;768107;183;914692;-67
2021/10/25 13:13:00;;;;;;;6.30;1.87;;;;;;;;;;770223;183;705529;-68
2021/10/25 13:15:26;;;;;;;4.40;2.03;;;;;;;;;;773097;183;635967;-68
2021/10/25 13:17:51;;;;;;;6.83;2.43;;;;;;;;;;768695;183;625122;-67
2021/10/25 13:20:18;;;;;;;4.50;2.07;;;;;;;;;;764745;183;1493782;-67
2021/10/25 13:22:43;;;;;;;3.80;1.93;;;;;;;;;;771898;183;616515;-67
2021/10/25 13:25:09;;;;;;;9.00;2.33;;;;;;;;;;769531;183;626142;-67
2021/10/25 13:27:35;;;;;;;9.23;2.03;;;;;;;;;;767807;183;634082;-68
2021/10/25 13:30:03;;;;;;;5.07;1.90;;;;;;;;;;768556;183;918320;-67
2021/10/25 13:32:27;;;;;;;4.97;1.87;;;;;;;;;;771984;183;621653;-68
2021/10/25 13:34:53;;;;;;;8.40;2.80;;;;;;;;;;768231;183;626790;-67
2021/10/25 13:37:18;;;;;;;4.67;1.97;;;;;;;;;;767467;183;799379;-67
2021/10/25 13:39:44;;;;;;;6.70;2.90;;;;;;;;;;769622;183;920589;-67
2021/10/25 13:42:10;;;;;;;5.80;2.10;;;;;;;;;;770796;180;622901;-68
2021/10/25 13:44:36;;;;;;;4.03;2.17;;;;;;;;;;770681;182;647127;-68
2021/10/25 13:47:02;;;;;;;5.20;2.20;;;;;;;;;;769263;183;919777;-67
2021/10/25 13:49:27;;;;;;;5.63;2.27;;;;;;;;;;766299;183;820148;-68
2021/10/25 13:51:54;;;;;;;5.20;2.17;;;;;;;;;;769315;183;634096;-67
2021/10/25 13:54:19;;;;;;;12.63;3.23;;;;;;;;;;769538;183;627181;-67
2021/10/25 13:56:45;;;;;;;5.17;2.67;;;;;;;;;;769745;182;665653;-67
2021/10/25 13:59:11;;;;;;;8.23;2.27;;;;;;;;;;767965;183;627103;-67
2021/10/25 14:01:37;;;;;;;4.53;2.37;;;;;;;;;;771351;183;626646;-68
2021/10/25 14:04:03;;;;;;;6.40;2.90;;;;;;;;;;772806;183;635888;-67
2021/10/25 14:06:31;;;;;;;3.07;1.83;;;;;;;;;;769825;183;627896;-66
2021/10/25 14:08:55;;;;;;;5.23;2.33;;;;;;;;;;767543;183;618380;-67
2021/10/25 14:11:22;;;;;;;4.73;2.10;;;;;;;;;;772520;183;638400;-67
2021/10/25 14:14:01;;;;;;;5.33;1.90;;;;;;;;;;766657;183;655655;-69
2021/10/25 14:18:58;;;;;;;5.77;2.30;;;;;;;;;;754865;183;629403;-67
2021/10/25 14:21:27;;;;;;;7.23;2.30;;;;;;;;;;765768;183;646771;-67
2021/10/25 14:23:50;;;;;;;3.33;2.07;;;;;;;;;;770160;183;919347;-67
2021/10/25 14:26:16;;;;;;;4.83;2.07;;;;;;;;;;760987;183;2040612;-67
2021/10/25 14:28:42;;;;;;;6.63;2.23;;;;;;;;;;769454;183;617805;-68
2021/10/25 14:31:12;;;;;;;4.70;2.40;;;;;;;;;;771880;183;628208;-67
2021/10/25 14:33:35;;;;;;;4.87;2.10;;;;;;;;;;765527;183;722292;-67
2021/10/25 14:35:59;;;;;;;6.37;2.30;;;;;;;;;;769879;183;619260;-67
2021/10/25 14:38:37;;;;;;;3.13;1.70;;;;;;;;;;771139;183;638691;-67
2021/10/25 14:41:05;;;;;;;7.00;2.00;;;;;;;;;;758357;183;918894;-67
2021/10/25 14:43:21;;;;;;;6.03;2.13;;;;;;;;;;770128;182;620903;-67
2021/10/25 14:45:53;;;;;;;3.90;2.53;;;;;;;;;;769653;182;631347;-67
2021/10/25 14:48:25;;;;;;;4.97;2.20;;;;;;;;;;771192;183;918879;-67
2021/10/25 14:53:30;;;;;;;6.03;2.00;;;;;;;;;;769304;182;636289;-66
2021/10/25 14:56:00;;;;;;;5.30;2.53;;;;;;;;;;768282;182;916819;-67
2021/10/25 14:58:23;;;;;;;5.80;2.17;;;;;;;;;;768413;183;645607;-67
2021/10/25 15:00:49;;;;;;;7.70;2.30;;;;;;;;;;773081;183;618260;-66
2021/10/25 15:03:15;;;;;;;7.87;3.60;;;;;;;;;;766331;180;1013107;-67
2021/10/25 15:05:41;;;;;;;6.50;2.60;;;;;;;;;;766608;183;919368;-67
2021/10/25 15:08:07;;;;;;;3.80;2.00;;;;;;;;;;773669;183;647768;-67
2021/10/25 15:10:32;;;;;;;6.47;2.40;;;;;;;;;;769100;183;620214;-67
2021/10/25 15:13:00;;;;;;;13.30;3.40;;;;;;;;;;767052;183;620055;-68
2021/10/25 15:15:24;;;;;;;8.67;3.03;;;;;;;;;;769589;183;633147;-68
2021/10/25 15:17:50;;;;;;;4.73;3.13;;;;;;;;;;770465;180;632161;-67
2021/10/25 15:20:16;;;;;;;8.00;2.63;;;;;;;;;;765133;183;650824;-67
2021/10/25 15:22:42;;;;;;;5.13;2.60;;;;;;;;;;770113;183;641958;-67
2021/10/25 15:25:09;;;;;;;5.20;2.67;;;;;;;;;;772435;183;630547;-67
2021/10/25 15:27:35;;;;;;;4.17;2.40;;;;;;;;;;770355;182;636182;-67
2021/10/25 15:30:00;;;;;;;5.63;3.27;;;;;;;;;;767332;183;646104;-67
2021/10/25 15:32:26;;;;;;;5.70;3.00;;;;;;;;;;771285;183;920284;-67
2021/10/25 15:34:52;;;;;;;4.90;2.27;;;;;;;;;;768470;183;628502;-67
2021/10/25 15:37:17;;;;;;;7.10;3.30;;;;;;;;;;769360;183;629887;-66
2021/10/25 15:39:43;;;;;;;5.93;3.13;;;;;;;;;;774130;183;656243;-67